sensor_id;sensor_type;location;lat;lon;timestamp;temperature;humidity
28460;DHT22;32528;45.712;9.192;2022-12-05T00:01:42;10.20;99.90
28460;DHT22;32528;45.712;9.192;2022-12-05T00:03:43;10.20;99.90
28460;DHT22;32528;45.712;9.192;2022-12-05T00:05:44;10.20;99.90
28460;DHT22;32528;45.712;9.192;2022-12-05T00:07:45;10.20;99.90
28460;DHT22;32528;45.712;9.192;2022-12-05T00:09:45;10.10;99.90
28460;DHT22;32528;45.712;9.192;2022-12-05T00:11:46;10.10;99.90
28460;DHT22;32528;45.712;9.192;2022-12-05T00:13:48;10.10;99.90
28460;DHT22;32528;45.712;9.192;2022-12-05T00:15:48;10.20;99.90
28460;DHT22;32528;45.712;9.192;2022-12-05T00:17:49;10.20;99.90
28460;DHT22;32528;45.712;9.192;2022-12-05T00:19:50;10.10;99.90
28460;DHT22;32528;45.712;9.192;2022-12-05T00:21:50;10.20;99.90
28460;DHT22;32528;45.712;9.192;2022-12-05T00:23:52;10.20;99.90
28460;DHT22;32528;45.712;9.192;2022-12-05T00:25:52;10.10;99.90
28460;DHT22;32528;45.712;9.192;2022-12-05T00:27:53;10.20;99.90
28460;DHT22;32528;45.712;9.192;2022-12-05T00:29:54;10.20;99.90
28460;DHT22;32528;45.712;9.192;2022-12-05T00:31:54;10.10;99.90
28460;DHT22;32528;45.712;9.192;2022-12-05T00:33:55;10.10;99.90
28460;DHT22;32528;45.712;9.192;2022-12-05T00:36:02;10.10;99.90
28460;DHT22;32528;45.712;9.192;2022-12-05T00:38:03;10.10;99.90
28460;DHT22;32528;45.712;9.192;2022-12-05T00:40:04;10.10;99.90
28460;DHT22;32528;45.712;9.192;2022-12-05T00:42:05;10.10;99.90
28460;DHT22;32528;45.712;9.192;2022-12-05T00:44:06;10.10;99.90
28460;DHT22;32528;45.712;9.192;2022-12-05T00:46:11;10.10;99.90
28460;DHT22;32528;45.712;9.192;2022-12-05T00:48:13;10.10;99.90
28460;DHT22;32528;45.712;9.192;2022-12-05T00:50:14;10.10;99.90
28460;DHT22;32528;45.712;9.192;2022-12-05T00:52:14;10.20;99.90
28460;DHT22;32528;45.712;9.192;2022-12-05T00:54:15;10.10;99.90
28460;DHT22;32528;45.712;9.192;2022-12-05T00:56:17;10.20;99.90
28460;DHT22;32528;45.712;9.192;2022-12-05T00:58:18;10.20;99.90
28460;DHT22;32528;45.712;9.192;2022-12-05T01:00:19;10.20;99.90
28460;DHT22;32528;45.712;9.192;2022-12-05T01:02:19;10.20;99.90
28460;DHT22;32528;45.712;9.192;2022-12-05T01:04:23;10.20;99.90
28460;DHT22;32528;45.712;9.192;2022-12-05T01:06:24;10.10;99.90
28460;DHT22;32528;45.712;9.192;2022-12-05T01:08:26;10.20;99.90
28460;DHT22;32528;45.712;9.192;2022-12-05T01:10:26;10.20;99.90
28460;DHT22;32528;45.712;9.192;2022-12-05T01:12:27;10.20;99.90
28460;DHT22;32528;45.712;9.192;2022-12-05T01:14:28;10.20;99.90
28460;DHT22;32528;45.712;9.192;2022-12-05T01:16:30;10.20;99.90
28460;DHT22;32528;45.712;9.192;2022-12-05T01:18:31;10.20;99.90
28460;DHT22;32528;45.712;9.192;2022-12-05T01:20:32;10.20;99.90
28460;DHT22;32528;45.712;9.192;2022-12-05T01:22:32;10.20;99.90
28460;DHT22;32528;45.712;9.192;2022-12-05T01:24:33;10.20;99.90
28460;DHT22;32528;45.712;9.192;2022-12-05T01:26:33;10.30;99.90
28460;DHT22;32528;45.712;9.192;2022-12-05T01:28:36;10.30;99.90
28460;DHT22;32528;45.712;9.192;2022-12-05T01:30:37;10.30;99.90
28460;DHT22;32528;45.712;9.192;2022-12-05T01:32:39;10.30;99.90
28460;DHT22;32528;45.712;9.192;2022-12-05T01:34:39;10.30;99.90
28460;DHT22;32528;45.712;9.192;2022-12-05T01:36:40;10.30;99.90
28460;DHT22;32528;45.712;9.192;2022-12-05T01:38:41;10.20;99.90
28460;DHT22;32528;45.712;9.192;2022-12-05T01:40:42;10.20;99.90
28460;DHT22;32528;45.712;9.192;2022-12-05T01:42:43;10.20;99.90
28460;DHT22;32528;45.712;9.192;2022-12-05T01:46:49;10.20;99.90
28460;DHT22;32528;45.712;9.192;2022-12-05T01:48:50;10.30;99.90
28460;DHT22;32528;45.712;9.192;2022-12-05T01:50:51;10.30;99.90
28460;DHT22;32528;45.712;9.192;2022-12-05T01:52:51;10.30;99.90
28460;DHT22;32528;45.712;9.192;2022-12-05T01:54:53;10.40;99.90
28460;DHT22;32528;45.712;9.192;2022-12-05T01:57:00;10.40;99.90
28460;DHT22;32528;45.712;9.192;2022-12-05T01:59:04;10.40;99.90
28460;DHT22;32528;45.712;9.192;2022-12-05T02:01:07;10.40;99.90
28460;DHT22;32528;45.712;9.192;2022-12-05T02:03:11;10.40;99.90
28460;DHT22;32528;45.712;9.192;2022-12-05T02:05:17;10.40;99.90
28460;DHT22;32528;45.712;9.192;2022-12-05T02:07:20;10.40;99.90
28460;DHT22;32528;45.712;9.192;2022-12-05T02:09:20;10.40;99.90
28460;DHT22;32528;45.712;9.192;2022-12-05T02:11:22;10.40;99.90
28460;DHT22;32528;45.712;9.192;2022-12-05T02:15:49;10.40;99.90
28460;DHT22;32528;45.712;9.192;2022-12-05T02:30:39;10.50;99.90
28460;DHT22;32528;45.712;9.192;2022-12-05T02:32:45;10.50;99.90
28460;DHT22;32528;45.712;9.192;2022-12-05T02:37:15;10.50;99.90
28460;DHT22;32528;45.712;9.192;2022-12-05T02:41:40;10.50;99.90
28460;DHT22;32528;45.712;9.192;2022-12-05T02:45:49;10.40;99.90
28460;DHT22;32528;45.712;9.192;2022-12-05T02:47:53;10.40;99.90
28460;DHT22;32528;45.712;9.192;2022-12-05T02:49:53;10.40;99.90
28460;DHT22;32528;45.712;9.192;2022-12-05T02:51:57;10.40;99.90
28460;DHT22;32528;45.712;9.192;2022-12-05T02:53:58;10.40;99.90
28460;DHT22;32528;45.712;9.192;2022-12-05T02:56:00;10.40;99.90
28460;DHT22;32528;45.712;9.192;2022-12-05T02:58:03;10.40;99.90
28460;DHT22;32528;45.712;9.192;2022-12-05T03:00:05;10.40;99.90
28460;DHT22;32528;45.712;9.192;2022-12-05T03:02:20;10.40;99.90
28460;DHT22;32528;45.712;9.192;2022-12-05T03:04:22;10.40;99.90
28460;DHT22;32528;45.712;9.192;2022-12-05T03:06:28;10.40;99.90
28460;DHT22;32528;45.712;9.192;2022-12-05T03:08:46;10.40;99.90
28460;DHT22;32528;45.712;9.192;2022-12-05T03:10:48;10.50;99.90
28460;DHT22;32528;45.712;9.192;2022-12-05T03:12:53;10.50;99.90
28460;DHT22;32528;45.712;9.192;2022-12-05T03:17:00;10.50;99.90
28460;DHT22;32528;45.712;9.192;2022-12-05T03:19:02;10.50;99.90
28460;DHT22;32528;45.712;9.192;2022-12-05T03:23:08;10.40;99.90
28460;DHT22;32528;45.712;9.192;2022-12-05T03:25:10;10.40;99.90
28460;DHT22;32528;45.712;9.192;2022-12-05T03:31:18;10.40;99.90
28460;DHT22;32528;45.712;9.192;2022-12-05T03:33:25;10.40;99.90
28460;DHT22;32528;45.712;9.192;2022-12-05T03:35:39;10.40;99.90
28460;DHT22;32528;45.712;9.192;2022-12-05T03:40:02;10.30;99.90
28460;DHT22;32528;45.712;9.192;2022-12-05T03:42:16;10.30;99.90
28460;DHT22;32528;45.712;9.192;2022-12-05T03:50:48;10.30;99.90
28460;DHT22;32528;45.712;9.192;2022-12-05T03:52:56;10.30;99.90
28460;DHT22;32528;45.712;9.192;2022-12-05T03:55:00;10.30;99.90
28460;DHT22;32528;45.712;9.192;2022-12-05T03:57:49;10.30;99.90
28460;DHT22;32528;45.712;9.192;2022-12-05T03:59:40;10.30;99.90
28460;DHT22;32528;45.712;9.192;2022-12-05T04:01:43;10.30;99.90
28460;DHT22;32528;45.712;9.192;2022-12-05T04:03:48;10.40;99.90
28460;DHT22;32528;45.712;9.192;2022-12-05T04:05:55;10.30;99.90
28460;DHT22;32528;45.712;9.192;2022-12-05T04:07:59;10.40;99.90
28460;DHT22;32528;45.712;9.192;2022-12-05T04:10:04;10.30;99.90
28460;DHT22;32528;45.712;9.192;2022-12-05T04:12:09;10.30;99.90
28460;DHT22;32528;45.712;9.192;2022-12-05T04:14:12;10.30;99.90
28460;DHT22;32528;45.712;9.192;2022-12-05T04:16:19;10.40;99.90
28460;DHT22;32528;45.712;9.192;2022-12-05T04:18:41;10.30;99.90
28460;DHT22;32528;45.712;9.192;2022-12-05T04:20:43;10.30;99.90
28460;DHT22;32528;45.712;9.192;2022-12-05T04:23:06;10.30;99.90
28460;DHT22;32528;45.712;9.192;2022-12-05T04:25:09;10.40;99.90
28460;DHT22;32528;45.712;9.192;2022-12-05T04:29:33;10.30;99.90
28460;DHT22;32528;45.712;9.192;2022-12-05T04:31:43;10.30;99.90
28460;DHT22;32528;45.712;9.192;2022-12-05T04:33:54;10.30;99.90
28460;DHT22;32528;45.712;9.192;2022-12-05T04:38:01;10.30;99.90
28460;DHT22;32528;45.712;9.192;2022-12-05T04:40:05;10.30;99.90
28460;DHT22;32528;45.712;9.192;2022-12-05T04:42:08;10.30;99.90
28460;DHT22;32528;45.712;9.192;2022-12-05T04:44:10;10.20;99.90
28460;DHT22;32528;45.712;9.192;2022-12-05T04:46:12;10.20;99.90
28460;DHT22;32528;45.712;9.192;2022-12-05T04:48:14;10.20;99.90
28460;DHT22;32528;45.712;9.192;2022-12-05T04:50:16;10.20;99.90
28460;DHT22;32528;45.712;9.192;2022-12-05T04:52:17;10.20;99.90
28460;DHT22;32528;45.712;9.192;2022-12-05T04:54:23;10.20;99.90
28460;DHT22;32528;45.712;9.192;2022-12-05T04:56:27;10.20;99.90
28460;DHT22;32528;45.712;9.192;2022-12-05T04:58:29;10.20;99.90
28460;DHT22;32528;45.712;9.192;2022-12-05T05:00:30;10.10;99.90
28460;DHT22;32528;45.712;9.192;2022-12-05T05:02:40;10.10;99.90
28460;DHT22;32528;45.712;9.192;2022-12-05T05:04:50;10.10;99.90
28460;DHT22;32528;45.712;9.192;2022-12-05T05:06:52;10.10;99.90
28460;DHT22;32528;45.712;9.192;2022-12-05T05:08:53;10.10;99.90
28460;DHT22;32528;45.712;9.192;2022-12-05T05:12:55;10.20;99.90
28460;DHT22;32528;45.712;9.192;2022-12-05T05:14:56;10.20;99.90
28460;DHT22;32528;45.712;9.192;2022-12-05T05:16:56;10.10;99.90
28460;DHT22;32528;45.712;9.192;2022-12-05T05:18:57;10.10;99.90
28460;DHT22;32528;45.712;9.192;2022-12-05T05:20:58;10.10;99.90
28460;DHT22;32528;45.712;9.192;2022-12-05T05:22:58;10.10;99.90
28460;DHT22;32528;45.712;9.192;2022-12-05T05:24:59;10.20;99.90
28460;DHT22;32528;45.712;9.192;2022-12-05T05:27:00;10.20;99.90
28460;DHT22;32528;45.712;9.192;2022-12-05T05:29:00;10.20;99.90
28460;DHT22;32528;45.712;9.192;2022-12-05T05:31:01;10.20;99.90
28460;DHT22;32528;45.712;9.192;2022-12-05T05:33:02;10.20;99.90
28460;DHT22;32528;45.712;9.192;2022-12-05T05:35:03;10.20;99.90
28460;DHT22;32528;45.712;9.192;2022-12-05T05:37:04;10.20;99.90
28460;DHT22;32528;45.712;9.192;2022-12-05T05:39:04;10.20;99.90
28460;DHT22;32528;45.712;9.192;2022-12-05T05:41:10;10.20;99.90
28460;DHT22;32528;45.712;9.192;2022-12-05T05:43:11;10.10;99.90
28460;DHT22;32528;45.712;9.192;2022-12-05T05:45:12;10.10;99.90
28460;DHT22;32528;45.712;9.192;2022-12-05T05:47:13;10.20;99.90
28460;DHT22;32528;45.712;9.192;2022-12-05T05:49:14;10.10;99.90
28460;DHT22;32528;45.712;9.192;2022-12-05T05:51:14;10.10;99.90
28460;DHT22;32528;45.712;9.192;2022-12-05T05:53:15;10.10;99.90
28460;DHT22;32528;45.712;9.192;2022-12-05T05:55:16;10.10;99.90
28460;DHT22;32528;45.712;9.192;2022-12-05T05:57:16;10.20;99.90
28460;DHT22;32528;45.712;9.192;2022-12-05T05:59:17;10.20;99.90
28460;DHT22;32528;45.712;9.192;2022-12-05T06:01:18;10.20;99.90
28460;DHT22;32528;45.712;9.192;2022-12-05T06:03:22;10.20;99.90
28460;DHT22;32528;45.712;9.192;2022-12-05T06:05:22;10.20;99.90
28460;DHT22;32528;45.712;9.192;2022-12-05T06:07:24;10.20;99.90
28460;DHT22;32528;45.712;9.192;2022-12-05T06:09:24;10.20;99.90
28460;DHT22;32528;45.712;9.192;2022-12-05T06:11:26;10.20;99.90
28460;DHT22;32528;45.712;9.192;2022-12-05T06:13:27;10.20;99.90
28460;DHT22;32528;45.712;9.192;2022-12-05T06:15:28;10.20;99.90
28460;DHT22;32528;45.712;9.192;2022-12-05T06:17:29;10.20;99.90
28460;DHT22;32528;45.712;9.192;2022-12-05T06:19:30;10.20;99.90
28460;DHT22;32528;45.712;9.192;2022-12-05T06:21:30;10.20;99.90
28460;DHT22;32528;45.712;9.192;2022-12-05T06:23:31;10.20;99.90
28460;DHT22;32528;45.712;9.192;2022-12-05T06:25:32;10.20;99.90
28460;DHT22;32528;45.712;9.192;2022-12-05T06:27:32;10.20;99.90
28460;DHT22;32528;45.712;9.192;2022-12-05T06:29:33;10.20;99.90
28460;DHT22;32528;45.712;9.192;2022-12-05T06:31:34;10.10;99.90
28460;DHT22;32528;45.712;9.192;2022-12-05T06:33:35;10.20;99.90
28460;DHT22;32528;45.712;9.192;2022-12-05T06:35:36;10.20;99.90
28460;DHT22;32528;45.712;9.192;2022-12-05T06:37:37;10.20;99.90
28460;DHT22;32528;45.712;9.192;2022-12-05T06:39:37;10.20;99.90
28460;DHT22;32528;45.712;9.192;2022-12-05T06:41:38;10.20;99.90
28460;DHT22;32528;45.712;9.192;2022-12-05T06:43:40;10.20;99.90
28460;DHT22;32528;45.712;9.192;2022-12-05T06:45:41;10.30;99.90
28460;DHT22;32528;45.712;9.192;2022-12-05T06:47:42;10.30;99.90
28460;DHT22;32528;45.712;9.192;2022-12-05T06:49:42;10.30;99.90
28460;DHT22;32528;45.712;9.192;2022-12-05T06:51:44;10.30;99.90
28460;DHT22;32528;45.712;9.192;2022-12-05T06:53:44;10.40;99.90
28460;DHT22;32528;45.712;9.192;2022-12-05T06:55:55;10.40;99.90
28460;DHT22;32528;45.712;9.192;2022-12-05T06:57:57;10.40;99.90
28460;DHT22;32528;45.712;9.192;2022-12-05T06:59:57;10.40;99.90
28460;DHT22;32528;45.712;9.192;2022-12-05T07:02:18;10.40;99.90
28460;DHT22;32528;45.712;9.192;2022-12-05T07:04:20;10.50;99.90
28460;DHT22;32528;45.712;9.192;2022-12-05T07:06:23;10.40;99.90
28460;DHT22;32528;45.712;9.192;2022-12-05T07:08:23;10.40;99.90
28460;DHT22;32528;45.712;9.192;2022-12-05T07:10:24;10.40;99.90
28460;DHT22;32528;45.712;9.192;2022-12-05T07:12:25;10.40;99.90
28460;DHT22;32528;45.712;9.192;2022-12-05T07:14:25;10.40;99.90
28460;DHT22;32528;45.712;9.192;2022-12-05T07:16:26;10.20;99.90
28460;DHT22;32528;45.712;9.192;2022-12-05T07:18:26;10.30;99.90
28460;DHT22;32528;45.712;9.192;2022-12-05T07:20:27;10.30;99.90
28460;DHT22;32528;45.712;9.192;2022-12-05T07:22:27;10.30;99.90
28460;DHT22;32528;45.712;9.192;2022-12-05T07:24:28;10.40;99.90
28460;DHT22;32528;45.712;9.192;2022-12-05T07:26:29;10.40;99.90
28460;DHT22;32528;45.712;9.192;2022-12-05T07:28:29;10.40;99.90
28460;DHT22;32528;45.712;9.192;2022-12-05T07:30:31;10.40;99.90
28460;DHT22;32528;45.712;9.192;2022-12-05T07:32:31;10.40;99.90
28460;DHT22;32528;45.712;9.192;2022-12-05T07:34:32;10.40;99.90
28460;DHT22;32528;45.712;9.192;2022-12-05T07:36:33;10.30;99.90
28460;DHT22;32528;45.712;9.192;2022-12-05T07:38:35;10.30;99.90
28460;DHT22;32528;45.712;9.192;2022-12-05T07:40:36;10.30;99.90
28460;DHT22;32528;45.712;9.192;2022-12-05T07:42:37;10.30;99.90
28460;DHT22;32528;45.712;9.192;2022-12-05T07:44:37;10.30;99.90
28460;DHT22;32528;45.712;9.192;2022-12-05T07:46:38;10.30;99.90
28460;DHT22;32528;45.712;9.192;2022-12-05T07:48:39;10.30;99.90
28460;DHT22;32528;45.712;9.192;2022-12-05T07:50:40;10.30;99.90
28460;DHT22;32528;45.712;9.192;2022-12-05T07:52:40;10.30;99.90
28460;DHT22;32528;45.712;9.192;2022-12-05T07:54:42;10.40;99.90
28460;DHT22;32528;45.712;9.192;2022-12-05T07:56:42;10.40;99.90
28460;DHT22;32528;45.712;9.192;2022-12-05T07:58:44;10.40;99.90
28460;DHT22;32528;45.712;9.192;2022-12-05T08:00:45;10.40;99.90
28460;DHT22;32528;45.712;9.192;2022-12-05T08:02:45;10.30;99.90
28460;DHT22;32528;45.712;9.192;2022-12-05T08:04:46;10.40;99.90
28460;DHT22;32528;45.712;9.192;2022-12-05T08:06:47;10.40;99.90
28460;DHT22;32528;45.712;9.192;2022-12-05T08:08:47;10.50;99.90
28460;DHT22;32528;45.712;9.192;2022-12-05T08:10:49;10.50;99.90
28460;DHT22;32528;45.712;9.192;2022-12-05T08:12:49;10.60;99.90
28460;DHT22;32528;45.712;9.192;2022-12-05T08:14:51;10.60;99.90
28460;DHT22;32528;45.712;9.192;2022-12-05T08:16:51;10.50;99.90
28460;DHT22;32528;45.712;9.192;2022-12-05T08:18:55;10.50;99.90
28460;DHT22;32528;45.712;9.192;2022-12-05T08:21:00;10.50;99.90
28460;DHT22;32528;45.712;9.192;2022-12-05T08:23:01;10.50;99.90
28460;DHT22;32528;45.712;9.192;2022-12-05T08:25:01;10.50;99.90
28460;DHT22;32528;45.712;9.192;2022-12-05T08:27:03;10.40;99.90
28460;DHT22;32528;45.712;9.192;2022-12-05T08:29:08;10.30;99.90
28460;DHT22;32528;45.712;9.192;2022-12-05T08:31:10;10.30;99.90
28460;DHT22;32528;45.712;9.192;2022-12-05T08:33:11;10.40;99.90
28460;DHT22;32528;45.712;9.192;2022-12-05T08:35:11;10.40;99.90
28460;DHT22;32528;45.712;9.192;2022-12-05T08:37:13;10.40;99.90
28460;DHT22;32528;45.712;9.192;2022-12-05T08:39:14;10.40;99.90
28460;DHT22;32528;45.712;9.192;2022-12-05T08:41:16;10.40;99.90
28460;DHT22;32528;45.712;9.192;2022-12-05T08:43:16;10.40;99.90
28460;DHT22;32528;45.712;9.192;2022-12-05T08:45:17;10.50;99.90
28460;DHT22;32528;45.712;9.192;2022-12-05T08:47:18;10.50;99.90
28460;DHT22;32528;45.712;9.192;2022-12-05T08:49:18;10.50;99.90
28460;DHT22;32528;45.712;9.192;2022-12-05T08:51:19;10.60;99.90
28460;DHT22;32528;45.712;9.192;2022-12-05T08:53:20;10.60;99.90
28460;DHT22;32528;45.712;9.192;2022-12-05T08:55:20;10.60;99.90
28460;DHT22;32528;45.712;9.192;2022-12-05T08:57:21;10.70;99.90
28460;DHT22;32528;45.712;9.192;2022-12-05T08:59:22;10.70;99.90
28460;DHT22;32528;45.712;9.192;2022-12-05T09:01:22;10.70;99.90
28460;DHT22;32528;45.712;9.192;2022-12-05T09:03:25;10.70;99.90
28460;DHT22;32528;45.712;9.192;2022-12-05T09:05:26;10.60;99.90
28460;DHT22;32528;45.712;9.192;2022-12-05T09:07:26;10.60;99.90
28460;DHT22;32528;45.712;9.192;2022-12-05T09:09:28;10.60;99.90
28460;DHT22;32528;45.712;9.192;2022-12-05T09:11:29;10.60;99.90
28460;DHT22;32528;45.712;9.192;2022-12-05T09:13:31;10.60;99.90
28460;DHT22;32528;45.712;9.192;2022-12-05T09:15:31;10.60;99.90
28460;DHT22;32528;45.712;9.192;2022-12-05T09:17:32;10.60;99.90
28460;DHT22;32528;45.712;9.192;2022-12-05T09:19:33;10.60;99.90
28460;DHT22;32528;45.712;9.192;2022-12-05T09:21:33;10.60;99.90
28460;DHT22;32528;45.712;9.192;2022-12-05T09:23:34;10.60;99.90
28460;DHT22;32528;45.712;9.192;2022-12-05T09:25:35;10.60;99.90
28460;DHT22;32528;45.712;9.192;2022-12-05T09:27:36;10.60;99.90
28460;DHT22;32528;45.712;9.192;2022-12-05T09:29:36;10.60;99.90
28460;DHT22;32528;45.712;9.192;2022-12-05T09:31:37;10.50;99.90
28460;DHT22;32528;45.712;9.192;2022-12-05T09:33:38;10.50;99.90
28460;DHT22;32528;45.712;9.192;2022-12-05T09:35:38;10.50;99.90
28460;DHT22;32528;45.712;9.192;2022-12-05T09:37:40;10.60;99.90
28460;DHT22;32528;45.712;9.192;2022-12-05T09:39:41;10.60;99.90
28460;DHT22;32528;45.712;9.192;2022-12-05T09:41:50;10.60;99.90
28460;DHT22;32528;45.712;9.192;2022-12-05T09:44:20;10.50;99.90
28460;DHT22;32528;45.712;9.192;2022-12-05T09:46:32;10.50;99.90
28460;DHT22;32528;45.712;9.192;2022-12-05T09:48:39;10.60;99.90
28460;DHT22;32528;45.712;9.192;2022-12-05T09:50:43;10.70;99.90
28460;DHT22;32528;45.712;9.192;2022-12-05T09:53:28;10.80;99.90
28460;DHT22;32528;45.712;9.192;2022-12-05T09:55:16;10.90;99.90
28460;DHT22;32528;45.712;9.192;2022-12-05T09:57:17;10.80;99.90
28460;DHT22;32528;45.712;9.192;2022-12-05T09:59:19;10.80;99.90
28460;DHT22;32528;45.712;9.192;2022-12-05T10:03:52;11.00;99.90
28460;DHT22;32528;45.712;9.192;2022-12-05T10:06:01;11.10;99.90
28460;DHT22;32528;45.712;9.192;2022-12-05T10:08:13;11.20;99.90
28460;DHT22;32528;45.712;9.192;2022-12-05T10:16:40;11.30;99.90
28460;DHT22;32528;45.712;9.192;2022-12-05T10:18:46;11.20;99.90
28460;DHT22;32528;45.712;9.192;2022-12-05T10:20:50;11.10;99.90
28460;DHT22;32528;45.712;9.192;2022-12-05T10:23:25;11.00;99.90
28460;DHT22;32528;45.712;9.192;2022-12-05T10:25:18;11.00;99.90
28460;DHT22;32528;45.712;9.192;2022-12-05T10:27:41;11.00;99.90
28460;DHT22;32528;45.712;9.192;2022-12-05T10:29:49;10.90;99.90
28460;DHT22;32528;45.712;9.192;2022-12-05T10:31:53;10.80;99.90
28460;DHT22;32528;45.712;9.192;2022-12-05T10:34:02;10.70;99.90
28460;DHT22;32528;45.712;9.192;2022-12-05T10:36:08;10.70;99.90
28460;DHT22;32528;45.712;9.192;2022-12-05T10:40:10;10.80;99.90
28460;DHT22;32528;45.712;9.192;2022-12-05T10:42:12;10.80;99.90
28460;DHT22;32528;45.712;9.192;2022-12-05T10:44:14;10.90;99.90
28460;DHT22;32528;45.712;9.192;2022-12-05T10:46:15;10.90;99.90
28460;DHT22;32528;45.712;9.192;2022-12-05T10:48:17;11.00;99.90
28460;DHT22;32528;45.712;9.192;2022-12-05T10:52:24;11.00;99.90
28460;DHT22;32528;45.712;9.192;2022-12-05T10:54:28;11.00;99.90
28460;DHT22;32528;45.712;9.192;2022-12-05T10:56:35;11.00;99.90
28460;DHT22;32528;45.712;9.192;2022-12-05T10:58:37;11.00;99.90
28460;DHT22;32528;45.712;9.192;2022-12-05T11:00:38;11.00;99.90
28460;DHT22;32528;45.712;9.192;2022-12-05T11:02:44;10.90;99.90
28460;DHT22;32528;45.712;9.192;2022-12-05T11:04:46;10.80;99.90
28460;DHT22;32528;45.712;9.192;2022-12-05T11:06:52;10.90;99.90
28460;DHT22;32528;45.712;9.192;2022-12-05T11:08:57;10.90;99.90
28460;DHT22;32528;45.712;9.192;2022-12-05T11:11:02;10.90;99.90
28460;DHT22;32528;45.712;9.192;2022-12-05T11:13:15;11.10;99.90
28460;DHT22;32528;45.712;9.192;2022-12-05T11:17:23;11.10;99.90
28460;DHT22;32528;45.712;9.192;2022-12-05T11:19:25;11.10;99.90
28460;DHT22;32528;45.712;9.192;2022-12-05T11:21:26;11.10;99.90
28460;DHT22;32528;45.712;9.192;2022-12-05T11:23:27;11.10;99.90
28460;DHT22;32528;45.712;9.192;2022-12-05T11:25:35;11.10;99.90
28460;DHT22;32528;45.712;9.192;2022-12-05T11:27:35;11.10;99.90
28460;DHT22;32528;45.712;9.192;2022-12-05T11:29:38;11.00;99.90
28460;DHT22;32528;45.712;9.192;2022-12-05T11:31:38;11.10;99.90
28460;DHT22;32528;45.712;9.192;2022-12-05T11:33:39;11.00;99.90
28460;DHT22;32528;45.712;9.192;2022-12-05T11:35:39;11.10;99.90
28460;DHT22;32528;45.712;9.192;2022-12-05T11:37:49;11.20;99.90
28460;DHT22;32528;45.712;9.192;2022-12-05T11:39:51;11.10;99.90
28460;DHT22;32528;45.712;9.192;2022-12-05T11:46:35;11.00;99.90
28460;DHT22;32528;45.712;9.192;2022-12-05T11:51:03;10.90;99.90
28460;DHT22;32528;45.712;9.192;2022-12-05T11:55:29;11.10;99.90
28460;DHT22;32528;45.712;9.192;2022-12-05T12:00:03;11.20;99.90
28460;DHT22;32528;45.712;9.192;2022-12-05T12:07:14;11.30;99.90
28460;DHT22;32528;45.712;9.192;2022-12-05T12:09:06;11.40;99.90
28460;DHT22;32528;45.712;9.192;2022-12-05T12:11:13;11.40;99.90
28460;DHT22;32528;45.712;9.192;2022-12-05T12:17:44;11.50;99.90
28460;DHT22;32528;45.712;9.192;2022-12-05T12:19:53;11.50;99.90
28460;DHT22;32528;45.712;9.192;2022-12-05T12:26:39;11.40;99.90
28460;DHT22;32528;45.712;9.192;2022-12-05T12:29:00;11.40;99.90
28460;DHT22;32528;45.712;9.192;2022-12-05T12:31:13;11.30;99.90
28460;DHT22;32528;45.712;9.192;2022-12-05T12:35:36;11.40;99.90
28460;DHT22;32528;45.712;9.192;2022-12-05T12:48:30;11.40;99.90
28460;DHT22;32528;45.712;9.192;2022-12-05T12:50:35;11.40;99.90
28460;DHT22;32528;45.712;9.192;2022-12-05T12:52:47;11.50;99.90
28460;DHT22;32528;45.712;9.192;2022-12-05T12:59:02;11.40;99.90
28460;DHT22;32528;45.712;9.192;2022-12-05T13:03:29;11.50;99.90
28460;DHT22;32528;45.712;9.192;2022-12-05T13:05:33;11.50;99.90
28460;DHT22;32528;45.712;9.192;2022-12-05T13:07:43;11.50;99.90
28460;DHT22;32528;45.712;9.192;2022-12-05T13:09:49;11.50;99.90
28460;DHT22;32528;45.712;9.192;2022-12-05T13:11:51;11.40;99.90
28460;DHT22;32528;45.712;9.192;2022-12-05T13:13:53;11.40;99.90
28460;DHT22;32528;45.712;9.192;2022-12-05T13:15:57;11.40;99.90
28460;DHT22;32528;45.712;9.192;2022-12-05T13:17:58;11.40;99.90
28460;DHT22;32528;45.712;9.192;2022-12-05T13:19:59;11.40;99.90
28460;DHT22;32528;45.712;9.192;2022-12-05T13:22:00;11.30;99.90
28460;DHT22;32528;45.712;9.192;2022-12-05T13:24:00;11.30;99.90
28460;DHT22;32528;45.712;9.192;2022-12-05T13:26:07;11.20;99.90
28460;DHT22;32528;45.712;9.192;2022-12-05T13:30:28;11.30;99.90
28460;DHT22;32528;45.712;9.192;2022-12-05T13:32:31;11.30;99.90
28460;DHT22;32528;45.712;9.192;2022-12-05T13:34:44;11.30;99.90
28460;DHT22;32528;45.712;9.192;2022-12-05T13:36:45;11.30;99.90
28460;DHT22;32528;45.712;9.192;2022-12-05T13:39:05;11.30;99.90
28460;DHT22;32528;45.712;9.192;2022-12-05T13:41:37;11.20;99.90
28460;DHT22;32528;45.712;9.192;2022-12-05T13:43:57;11.20;99.90
28460;DHT22;32528;45.712;9.192;2022-12-05T13:46:05;11.30;99.90
28460;DHT22;32528;45.712;9.192;2022-12-05T13:48:18;11.30;99.90
28460;DHT22;32528;45.712;9.192;2022-12-05T13:50:28;11.30;99.90
28460;DHT22;32528;45.712;9.192;2022-12-05T13:53:21;11.30;99.90
28460;DHT22;32528;45.712;9.192;2022-12-05T13:55:01;11.30;99.90
28460;DHT22;32528;45.712;9.192;2022-12-05T13:57:03;11.30;99.90
28460;DHT22;32528;45.712;9.192;2022-12-05T13:59:04;11.20;99.90
28460;DHT22;32528;45.712;9.192;2022-12-05T14:05:34;11.10;99.90
28460;DHT22;32528;45.712;9.192;2022-12-05T14:07:36;11.10;99.90
28460;DHT22;32528;45.712;9.192;2022-12-05T14:09:51;11.00;99.90
28460;DHT22;32528;45.712;9.192;2022-12-05T14:14:21;11.00;99.90
28460;DHT22;32528;45.712;9.192;2022-12-05T14:16:40;11.00;99.90
28460;DHT22;32528;45.712;9.192;2022-12-05T14:18:46;11.10;99.90
28460;DHT22;32528;45.712;9.192;2022-12-05T14:20:55;11.20;99.90
28460;DHT22;32528;45.712;9.192;2022-12-05T14:24:01;11.20;99.90
28460;DHT22;32528;45.712;9.192;2022-12-05T14:29:36;11.10;99.90
28460;DHT22;32528;45.712;9.192;2022-12-05T14:33:38;11.20;99.90
28460;DHT22;32528;45.712;9.192;2022-12-05T14:35:45;11.30;99.90
28460;DHT22;32528;45.712;9.192;2022-12-05T14:39:51;11.40;99.90
28460;DHT22;32528;45.712;9.192;2022-12-05T14:41:56;11.40;99.90
28460;DHT22;32528;45.712;9.192;2022-12-05T14:43:57;11.30;99.90
28460;DHT22;32528;45.712;9.192;2022-12-05T14:46:02;11.30;99.90
28460;DHT22;32528;45.712;9.192;2022-12-05T14:48:04;11.20;99.90
28460;DHT22;32528;45.712;9.192;2022-12-05T14:52:25;11.20;99.90
28460;DHT22;32528;45.712;9.192;2022-12-05T14:54:26;11.10;99.90
28460;DHT22;32528;45.712;9.192;2022-12-05T14:56:28;11.00;99.90
28460;DHT22;32528;45.712;9.192;2022-12-05T15:00:55;11.10;99.90
28460;DHT22;32528;45.712;9.192;2022-12-05T15:02:57;11.10;99.90
28460;DHT22;32528;45.712;9.192;2022-12-05T15:05:02;11.20;99.90
28460;DHT22;32528;45.712;9.192;2022-12-05T15:07:11;11.20;99.90
28460;DHT22;32528;45.712;9.192;2022-12-05T15:09:25;11.30;99.90
28460;DHT22;32528;45.712;9.192;2022-12-05T15:11:27;11.30;99.90